NCAR-RAP Real-Time Weather Data

Output produced by METARs form (08 May 2021  16:56 UTC)
found at http://weather.rap.ucar.edu/surface/
 
KCPR 081553Z 34014G20KT 10SM FEW075 14/04 A2981 RMK AO2 SLP048 T01440039
KCPR 081453Z 01007KT 10SM CLR 11/04 A2981 RMK AO2 SLP046 T01110044 51011
KCPR 081353Z 02009KT 10SM FEW070 09/04 A2981 RMK AO2 SLP044 T00890044
KCPR 081253Z 36003KT 10SM FEW041 BKN060 08/04 A2980 RMK AO2 SLP042 T00830044
KCPR 081153Z 06004KT 10SM BKN120 06/03 A2977 RMK AO2 SLP029 60000 T00610033 10178 20061 51019
KCPR 081053Z AUTO 32005KT 10SM BKN100 09/03 A2976 RMK AO2 SLP019 T00890033
KCPR 080953Z AUTO 32015KT 10SM FEW120 12/04 A2972 RMK AO2 PK WND 30026/0904 SLP004 T01170044
KCPR 080853Z AUTO 28015G26KT 10SM BKN110 13/03 A2971 RMK AO2 PK WND 23033/0819 WSHFT 0815 RAB12E23 SLP991 P0000 60000 T01330028 53003
KCPR 080835Z AUTO 26018G27KT 10SM SCT075 OVC100 14/03 A2972 RMK AO2 PK WND 23033/0819 WSHFT 0815 RAB12E23 P0000 T01390028
KCPR 080821Z AUTO 25016G33KT 10SM -RA SCT070 BKN090 OVC110 16/02 A2970 RMK AO2 PK WND 23033/0819 WSHFT 0801 RAB12 P0000 T01560017
KCPR 080753Z AUTO 26010KT 10SM FEW090 BKN110 15/M01 A2970 RMK AO2 SLP988 T01501006
KCPR 080653Z AUTO 21008KT 10SM CLR 14/00 A2967 RMK AO2 SLP983 T01440000 402831011
KCPR 080553Z AUTO 26006KT 10SM FEW120 14/02 A2969 RMK AO2 SLP996 T01390022 10256 20111 58001
KCPR 080453Z AUTO 20003KT 10SM CLR 13/03 A2970 RMK AO2 SLP003 T01330028
KCPR 080353Z AUTO 15006KT 10SM CLR 13/02 A2971 RMK AO2 SLP016 T01330022
KCPR 080253Z 02008KT 10SM CLR 19/01 A2970 RMK AO2 SLP006 T01890011 55000
KCPR 080153Z 13008KT 10SM CLR 21/04 A2969 RMK AO2 SLP008 T02060044
KCPR 080055Z 04007KT 10SM CLR 22/01 A2970 RMK AO2 SLP015 T02220006
KCPR 080036Z 02007KT 10SM CLR 25/M02 A2971 RMK AO2 T02501022
KCPR 072353Z 34007KT 10SM CLR 26/M04 A2972 RMK AO2 SLP024 T02561044 10283 20211 58020
KCPR 072253Z 21005KT 10SM CLR 26/M05 A2975 RMK AO2 PK WND 18027/2221 WSHFT 2213 SLP029 T02611050
KCPR 072233Z 21013G25KT 10SM CLR 26/M04 A2976 RMK AO2 PK WND 18027/2221 WSHFT 2213 T02611039
KCPR 072226Z 19015G27KT 10SM CLR 24/M03 A2977 RMK AO2 PK WND 18027/2221 T02441028
KCPR 072153Z 28019G31KT 10SM FEW090 SCT110 24/M04 A2979 RMK AO2 PK WND 16031/2145 SLP045 T02441044
KCPR 072053Z 16006KT 10SM CLR 28/M05 A2979 RMK AO2 SLP036 T02831050 58033
KCPR 071953Z 12009KT 10SM CLR 26/M01 A2983 RMK AO2 SLP052 T02611011
KCPR 071853Z 12011G15KT 10SM CLR 24/00 A2987 RMK AO2 SLP065 T02390000
KCPR 071753Z 11009KT 10SM CLR 21/01 A2990 RMK AO2 SLP077 T02110006 10228 21011 58023
KCPR 071653Z 15003KT 10SM CLR 18/02 A2994 RMK AO2 SLP090 T01830022
KCPR 071553Z 10005KT 10SM CLR 13/02 A2996 RMK AO2 SLP105 T01330022
KCPR 071453Z 18004KT 10SM CLR 11/02 A2998 RMK AO2 SLP119 T01110022 58012
KCPR 071353Z VRB03KT 10SM CLR 07/02 A3001 RMK AO2 SLP123 T00670017
KCPR 071253Z 00000KT 10SM CLR 03/01 A3001 RMK AO2 SLP125 T00330006
KCPR 071153Z 30003KT 10SM CLR M01/M03 A3002 RMK AO2 SLP137 T10111028 10089 21011 56014
KCPR 071053Z 33003KT 10SM CLR 00/M02 A3002 RMK AO2 SLP137 T00001022
KCPR 070953Z AUTO 00000KT 10SM CLR 02/M01 A3005 RMK AO2 SLP142 T00221011
KCPR 070853Z AUTO 35004KT 10SM CLR 03/00 A3007 RMK AO2 SLP147 T00280000 58010
KCPR 070753Z AUTO 35004KT 10SM CLR 03/M01 A3009 RMK AO2 SLP157 T00281006
KCPR 070653Z AUTO VRB04KT 10SM CLR 06/00 A3010 RMK AO2 SLP159 T00610000 402281033
KCPR 070553Z AUTO 10003KT 10SM CLR 09/00 A3011 RMK AO2 SLP158 T00890000 10222 20083 51001
KCPR 070453Z AUTO 09013KT 10SM CLR 12/M01 A3010 RMK AO2 SLP154 T01171011
KCPR 070353Z AUTO 07010KT 10SM CLR 12/M01 A3012 RMK AO2 SLP163 T01221006
KCPR 070253Z AUTO 04005KT 10SM CLR 12/M02 A3010 RMK AO2 SLP167 T01171022 53000
KCPR 070153Z 09006KT 10SM CLR 18/M04 A3009 RMK AO2 SLP161 T01831039
KCPR 070053Z VRB04KT 10SM CLR 22/M05 A3009 RMK AO2 SLP161 T02171050
KCPR 062353Z VRB04KT 10SM CLR 22/M06 A3010 RMK AO2 SLP169 T02171061 10228 20161 56021
KCPR 062253Z 25005KT 10SM CLR 22/M04 A3012 RMK AO2 SLP176 T02221044
KCPR 062153Z 00000KT 10SM CLR 21/M04 A3015 RMK AO2 SLP184 T02061039
KCPR 062053Z 25004KT 10SM CLR 21/M06 A3017 RMK AO2 SLP192 T02111056 56022
KCPR 061953Z 23008G17KT 10SM CLR 20/M05 A3019 RMK AO2 SLP201 T02001050
KCPR 061853Z VRB06KT 10SM CLR 18/M02 A3022 RMK AO2 SLP207 T01831022
KCPR 061753Z 21009KT 10SM CLR 16/M01 A3025 RMK AO2 SLP219 T01611006 10161 21028 58019